sensor_id;sensor_type;location;lat;lon;timestamp;temperature;humidity
27633;DHT22;15046;50.930;13.334;2023-06-10T00:00:47;18.90;76.50
27633;DHT22;15046;50.930;13.334;2023-06-10T00:03:13;18.90;76.90
27633;DHT22;15046;50.930;13.334;2023-06-10T00:05:41;19.00;77.30
27633;DHT22;15046;50.930;13.334;2023-06-10T00:08:07;18.90;77.30
27633;DHT22;15046;50.930;13.334;2023-06-10T00:10:37;19.00;77.60
27633;DHT22;15046;50.930;13.334;2023-06-10T00:13:05;19.10;77.80
27633;DHT22;15046;50.930;13.334;2023-06-10T00:15:34;19.20;77.90
27633;DHT22;15046;50.930;13.334;2023-06-10T00:18:01;19.20;77.90
27633;DHT22;15046;50.930;13.334;2023-06-10T00:20:29;19.20;78.00
27633;DHT22;15046;50.930;13.334;2023-06-10T00:22:59;19.10;78.30
27633;DHT22;15046;50.930;13.334;2023-06-10T00:25:26;19.20;78.80
27633;DHT22;15046;50.930;13.334;2023-06-10T00:27:52;19.20;78.70
27633;DHT22;15046;50.930;13.334;2023-06-10T00:30:18;19.20;78.60
27633;DHT22;15046;50.930;13.334;2023-06-10T00:32:44;19.20;78.80
27633;DHT22;15046;50.930;13.334;2023-06-10T00:35:10;19.20;78.90
27633;DHT22;15046;50.930;13.334;2023-06-10T00:37:36;19.20;79.00
27633;DHT22;15046;50.930;13.334;2023-06-10T00:40:03;19.20;79.00
27633;DHT22;15046;50.930;13.334;2023-06-10T00:42:30;19.20;79.20
27633;DHT22;15046;50.930;13.334;2023-06-10T00:44:55;19.20;79.30
27633;DHT22;15046;50.930;13.334;2023-06-10T00:47:22;19.20;79.30
27633;DHT22;15046;50.930;13.334;2023-06-10T00:49:49;19.20;79.20
27633;DHT22;15046;50.930;13.334;2023-06-10T00:52:16;19.20;79.20
27633;DHT22;15046;50.930;13.334;2023-06-10T00:54:45;19.20;79.30
27633;DHT22;15046;50.930;13.334;2023-06-10T00:57:12;19.10;79.50
27633;DHT22;15046;50.930;13.334;2023-06-10T00:59:40;19.10;79.70
27633;DHT22;15046;50.930;13.334;2023-06-10T01:02:07;19.10;79.70
27633;DHT22;15046;50.930;13.334;2023-06-10T01:04:33;19.00;79.70
27633;DHT22;15046;50.930;13.334;2023-06-10T01:12:34;18.80;80.70
27633;DHT22;15046;50.930;13.334;2023-06-10T01:15:02;18.70;80.70
27633;DHT22;15046;50.930;13.334;2023-06-10T01:17:29;18.60;81.00
27633;DHT22;15046;50.930;13.334;2023-06-10T01:19:59;18.60;81.40
27633;DHT22;15046;50.930;13.334;2023-06-10T01:22:26;18.50;81.60
27633;DHT22;15046;50.930;13.334;2023-06-10T01:24:55;18.50;81.80
27633;DHT22;15046;50.930;13.334;2023-06-10T01:27:28;18.40;81.90
27633;DHT22;15046;50.930;13.334;2023-06-10T01:30:03;18.40;82.20
27633;DHT22;15046;50.930;13.334;2023-06-10T01:32:37;18.30;82.40
27633;DHT22;15046;50.930;13.334;2023-06-10T01:35:07;18.30;82.80
27633;DHT22;15046;50.930;13.334;2023-06-10T01:37:33;18.20;82.90
27633;DHT22;15046;50.930;13.334;2023-06-10T01:40:00;18.20;83.10
27633;DHT22;15046;50.930;13.334;2023-06-10T01:42:32;18.10;83.20
27633;DHT22;15046;50.930;13.334;2023-06-10T01:44:58;18.10;83.30
27633;DHT22;15046;50.930;13.334;2023-06-10T01:47:24;18.00;83.40
27633;DHT22;15046;50.930;13.334;2023-06-10T01:49:50;17.90;83.70
27633;DHT22;15046;50.930;13.334;2023-06-10T01:52:16;17.80;84.00
27633;DHT22;15046;50.930;13.334;2023-06-10T01:54:42;17.70;84.40
27633;DHT22;15046;50.930;13.334;2023-06-10T01:57:07;17.60;84.70
27633;DHT22;15046;50.930;13.334;2023-06-10T01:59:33;17.50;85.10
27633;DHT22;15046;50.930;13.334;2023-06-10T02:01:59;17.40;85.20
27633;DHT22;15046;50.930;13.334;2023-06-10T02:04:25;17.40;85.40
27633;DHT22;15046;50.930;13.334;2023-06-10T02:06:50;17.30;85.30
27633;DHT22;15046;50.930;13.334;2023-06-10T02:09:17;17.30;85.40
27633;DHT22;15046;50.930;13.334;2023-06-10T02:11:44;17.20;85.60
27633;DHT22;15046;50.930;13.334;2023-06-10T02:14:10;17.20;86.00
27633;DHT22;15046;50.930;13.334;2023-06-10T02:16:35;17.10;86.40
27633;DHT22;15046;50.930;13.334;2023-06-10T02:19:01;17.00;86.70
27633;DHT22;15046;50.930;13.334;2023-06-10T02:21:28;17.00;87.10
27633;DHT22;15046;50.930;13.334;2023-06-10T02:23:54;16.90;87.80
27633;DHT22;15046;50.930;13.334;2023-06-10T02:26:20;16.80;88.20
27633;DHT22;15046;50.930;13.334;2023-06-10T02:28:46;16.90;88.60
27633;DHT22;15046;50.930;13.334;2023-06-10T02:31:13;16.80;88.90
27633;DHT22;15046;50.930;13.334;2023-06-10T02:33:39;16.80;89.40
27633;DHT22;15046;50.930;13.334;2023-06-10T02:36:06;16.70;89.70
27633;DHT22;15046;50.930;13.334;2023-06-10T02:38:31;16.70;90.10
27633;DHT22;15046;50.930;13.334;2023-06-10T02:40:57;16.60;90.20
27633;DHT22;15046;50.930;13.334;2023-06-10T02:43:23;16.60;90.40
27633;DHT22;15046;50.930;13.334;2023-06-10T02:45:48;16.60;90.70
27633;DHT22;15046;50.930;13.334;2023-06-10T02:48:14;16.50;91.00
27633;DHT22;15046;50.930;13.334;2023-06-10T02:50:40;16.50;91.30
27633;DHT22;15046;50.930;13.334;2023-06-10T02:53:06;16.40;91.50
27633;DHT22;15046;50.930;13.334;2023-06-10T02:55:32;16.40;91.80
27633;DHT22;15046;50.930;13.334;2023-06-10T02:57:58;16.30;92.10
27633;DHT22;15046;50.930;13.334;2023-06-10T03:00:24;16.30;92.50
27633;DHT22;15046;50.930;13.334;2023-06-10T03:02:50;16.30;92.90
27633;DHT22;15046;50.930;13.334;2023-06-10T03:05:16;16.20;93.20
27633;DHT22;15046;50.930;13.334;2023-06-10T03:07:42;16.20;93.50
27633;DHT22;15046;50.930;13.334;2023-06-10T03:10:08;16.20;93.80
27633;DHT22;15046;50.930;13.334;2023-06-10T03:12:34;16.20;94.20
27633;DHT22;15046;50.930;13.334;2023-06-10T03:14:59;16.20;94.50
27633;DHT22;15046;50.930;13.334;2023-06-10T03:17:25;16.10;94.80
27633;DHT22;15046;50.930;13.334;2023-06-10T03:19:51;16.10;95.20
27633;DHT22;15046;50.930;13.334;2023-06-10T03:22:17;16.10;95.60
27633;DHT22;15046;50.930;13.334;2023-06-10T03:24:43;16.10;96.00
27633;DHT22;15046;50.930;13.334;2023-06-10T03:27:11;16.10;96.30
27633;DHT22;15046;50.930;13.334;2023-06-10T03:29:39;16.10;96.70
27633;DHT22;15046;50.930;13.334;2023-06-10T03:32:05;16.00;97.10
27633;DHT22;15046;50.930;13.334;2023-06-10T03:34:31;16.00;97.50
27633;DHT22;15046;50.930;13.334;2023-06-10T03:36:57;16.00;98.00
27633;DHT22;15046;50.930;13.334;2023-06-10T03:39:23;16.00;98.50
27633;DHT22;15046;50.930;13.334;2023-06-10T03:41:50;16.10;98.90
27633;DHT22;15046;50.930;13.334;2023-06-10T03:44:16;16.10;99.10
27633;DHT22;15046;50.930;13.334;2023-06-10T03:46:41;16.10;99.50
27633;DHT22;15046;50.930;13.334;2023-06-10T03:49:07;16.20;99.90
27633;DHT22;15046;50.930;13.334;2023-06-10T03:51:35;16.20;99.90
27633;DHT22;15046;50.930;13.334;2023-06-10T03:54:01;16.20;99.90
27633;DHT22;15046;50.930;13.334;2023-06-10T03:56:27;16.20;99.90
27633;DHT22;15046;50.930;13.334;2023-06-10T03:58:54;16.30;99.90
27633;DHT22;15046;50.930;13.334;2023-06-10T04:01:20;16.30;99.90
27633;DHT22;15046;50.930;13.334;2023-06-10T04:03:47;16.30;99.90
27633;DHT22;15046;50.930;13.334;2023-06-10T04:06:14;16.30;99.90
27633;DHT22;15046;50.930;13.334;2023-06-10T04:08:40;16.40;99.90
27633;DHT22;15046;50.930;13.334;2023-06-10T04:11:06;16.40;99.90
27633;DHT22;15046;50.930;13.334;2023-06-10T04:13:31;16.50;99.90
27633;DHT22;15046;50.930;13.334;2023-06-10T04:15:57;16.50;99.90
27633;DHT22;15046;50.930;13.334;2023-06-10T04:18:23;16.50;99.90
27633;DHT22;15046;50.930;13.334;2023-06-10T04:20:49;16.60;99.90
27633;DHT22;15046;50.930;13.334;2023-06-10T04:23:14;16.70;99.90
27633;DHT22;15046;50.930;13.334;2023-06-10T04:25:40;16.80;99.90
27633;DHT22;15046;50.930;13.334;2023-06-10T04:28:06;16.90;99.90
27633;DHT22;15046;50.930;13.334;2023-06-10T04:30:32;17.20;99.90
27633;DHT22;15046;50.930;13.334;2023-06-10T04:32:58;17.40;99.90
27633;DHT22;15046;50.930;13.334;2023-06-10T04:35:24;17.50;99.90
27633;DHT22;15046;50.930;13.334;2023-06-10T04:37:52;17.50;99.90
27633;DHT22;15046;50.930;13.334;2023-06-10T04:40:17;17.50;99.90
27633;DHT22;15046;50.930;13.334;2023-06-10T04:42:43;17.50;99.90
27633;DHT22;15046;50.930;13.334;2023-06-10T04:45:09;17.50;99.90
27633;DHT22;15046;50.930;13.334;2023-06-10T04:47:35;17.60;99.90
27633;DHT22;15046;50.930;13.334;2023-06-10T04:50:01;17.50;99.90
27633;DHT22;15046;50.930;13.334;2023-06-10T04:52:27;17.60;99.90
27633;DHT22;15046;50.930;13.334;2023-06-10T04:54:53;17.60;99.90
27633;DHT22;15046;50.930;13.334;2023-06-10T04:57:20;17.60;99.90
27633;DHT22;15046;50.930;13.334;2023-06-10T04:59:46;17.60;99.90
27633;DHT22;15046;50.930;13.334;2023-06-10T05:02:12;17.70;99.90
27633;DHT22;15046;50.930;13.334;2023-06-10T05:04:38;17.70;99.90
27633;DHT22;15046;50.930;13.334;2023-06-10T05:07:04;17.70;99.90
27633;DHT22;15046;50.930;13.334;2023-06-10T05:09:30;17.80;99.90
27633;DHT22;15046;50.930;13.334;2023-06-10T05:11:56;17.80;99.90
27633;DHT22;15046;50.930;13.334;2023-06-10T05:14:22;17.80;99.90
27633;DHT22;15046;50.930;13.334;2023-06-10T05:16:48;17.90;99.90
27633;DHT22;15046;50.930;13.334;2023-06-10T05:19:14;17.90;99.90
27633;DHT22;15046;50.930;13.334;2023-06-10T05:21:41;18.00;99.90
27633;DHT22;15046;50.930;13.334;2023-06-10T05:24:07;18.10;99.90
27633;DHT22;15046;50.930;13.334;2023-06-10T05:26:33;18.10;99.90
27633;DHT22;15046;50.930;13.334;2023-06-10T05:29:03;18.20;99.90
27633;DHT22;15046;50.930;13.334;2023-06-10T05:31:30;18.20;99.90
27633;DHT22;15046;50.930;13.334;2023-06-10T05:33:55;18.30;99.90
27633;DHT22;15046;50.930;13.334;2023-06-10T05:36:22;18.40;99.90
27633;DHT22;15046;50.930;13.334;2023-06-10T05:38:50;18.40;99.90
27633;DHT22;15046;50.930;13.334;2023-06-10T05:41:16;18.50;99.90
27633;DHT22;15046;50.930;13.334;2023-06-10T05:43:42;18.50;99.90
27633;DHT22;15046;50.930;13.334;2023-06-10T05:46:08;18.60;99.90
27633;DHT22;15046;50.930;13.334;2023-06-10T05:48:34;18.60;99.90
27633;DHT22;15046;50.930;13.334;2023-06-10T05:50:59;18.70;99.90
27633;DHT22;15046;50.930;13.334;2023-06-10T05:53:25;18.80;99.90
27633;DHT22;15046;50.930;13.334;2023-06-10T05:55:51;18.80;99.90
27633;DHT22;15046;50.930;13.334;2023-06-10T05:58:20;18.90;99.90
27633;DHT22;15046;50.930;13.334;2023-06-10T06:00:45;19.00;99.90
27633;DHT22;15046;50.930;13.334;2023-06-10T06:03:11;19.10;99.90
27633;DHT22;15046;50.930;13.334;2023-06-10T06:05:37;19.20;99.90
27633;DHT22;15046;50.930;13.334;2023-06-10T06:08:10;19.20;99.90
27633;DHT22;15046;50.930;13.334;2023-06-10T06:10:36;19.30;99.90
27633;DHT22;15046;50.930;13.334;2023-06-10T06:13:02;19.40;99.90
27633;DHT22;15046;50.930;13.334;2023-06-10T06:15:28;19.40;99.90
27633;DHT22;15046;50.930;13.334;2023-06-10T06:17:54;19.50;99.90
27633;DHT22;15046;50.930;13.334;2023-06-10T06:20:22;19.50;99.90
27633;DHT22;15046;50.930;13.334;2023-06-10T06:22:48;19.60;99.90
27633;DHT22;15046;50.930;13.334;2023-06-10T06:25:13;19.70;99.90
27633;DHT22;15046;50.930;13.334;2023-06-10T06:27:39;19.80;99.90
27633;DHT22;15046;50.930;13.334;2023-06-10T06:30:06;19.80;99.90
27633;DHT22;15046;50.930;13.334;2023-06-10T06:32:32;19.90;99.90
27633;DHT22;15046;50.930;13.334;2023-06-10T06:34:58;20.00;99.90
27633;DHT22;15046;50.930;13.334;2023-06-10T06:37:25;20.00;99.90
27633;DHT22;15046;50.930;13.334;2023-06-10T06:39:51;20.10;99.90
27633;DHT22;15046;50.930;13.334;2023-06-10T06:42:17;20.20;99.90
27633;DHT22;15046;50.930;13.334;2023-06-10T06:44:44;20.30;99.90
27633;DHT22;15046;50.930;13.334;2023-06-10T06:47:10;20.40;99.90
27633;DHT22;15046;50.930;13.334;2023-06-10T06:49:35;20.40;99.90
27633;DHT22;15046;50.930;13.334;2023-06-10T06:52:02;20.50;99.90
27633;DHT22;15046;50.930;13.334;2023-06-10T06:54:27;20.50;99.90
27633;DHT22;15046;50.930;13.334;2023-06-10T06:56:53;20.60;99.90
27633;DHT22;15046;50.930;13.334;2023-06-10T06:59:19;20.70;99.90
27633;DHT22;15046;50.930;13.334;2023-06-10T07:01:46;20.70;99.90
27633;DHT22;15046;50.930;13.334;2023-06-10T07:04:13;20.80;99.90
27633;DHT22;15046;50.930;13.334;2023-06-10T07:06:39;20.90;99.90
27633;DHT22;15046;50.930;13.334;2023-06-10T07:09:05;20.90;99.90
27633;DHT22;15046;50.930;13.334;2023-06-10T07:11:32;21.00;99.90
27633;DHT22;15046;50.930;13.334;2023-06-10T07:13:57;21.10;99.90
27633;DHT22;15046;50.930;13.334;2023-06-10T07:16:23;21.20;99.90
27633;DHT22;15046;50.930;13.334;2023-06-10T07:18:49;21.30;99.70
27633;DHT22;15046;50.930;13.334;2023-06-10T07:21:14;21.40;99.40
27633;DHT22;15046;50.930;13.334;2023-06-10T07:23:44;21.50;99.00
27633;DHT22;15046;50.930;13.334;2023-06-10T07:26:10;21.50;99.20
27633;DHT22;15046;50.930;13.334;2023-06-10T07:28:41;21.50;98.70
27633;DHT22;15046;50.930;13.334;2023-06-10T07:31:08;21.60;98.50
27633;DHT22;15046;50.930;13.334;2023-06-10T07:33:34;21.70;98.60
27633;DHT22;15046;50.930;13.334;2023-06-10T07:35:59;21.80;97.90
27633;DHT22;15046;50.930;13.334;2023-06-10T07:38:26;21.90;97.60
27633;DHT22;15046;50.930;13.334;2023-06-10T07:40:52;22.10;97.30
27633;DHT22;15046;50.930;13.334;2023-06-10T07:43:18;22.20;96.50
27633;DHT22;15046;50.930;13.334;2023-06-10T07:45:44;22.20;96.10
27633;DHT22;15046;50.930;13.334;2023-06-10T07:48:10;22.30;96.10
27633;DHT22;15046;50.930;13.334;2023-06-10T07:50:35;22.30;95.70
27633;DHT22;15046;50.930;13.334;2023-06-10T07:53:01;22.40;95.40
27633;DHT22;15046;50.930;13.334;2023-06-10T07:55:27;22.50;95.00
27633;DHT22;15046;50.930;13.334;2023-06-10T07:57:56;22.50;94.70
27633;DHT22;15046;50.930;13.334;2023-06-10T08:00:21;22.50;94.60
27633;DHT22;15046;50.930;13.334;2023-06-10T08:02:47;22.60;94.60
27633;DHT22;15046;50.930;13.334;2023-06-10T08:05:13;22.60;94.30
27633;DHT22;15046;50.930;13.334;2023-06-10T08:07:40;22.80;94.70
27633;DHT22;15046;50.930;13.334;2023-06-10T08:10:06;23.10;94.50
27633;DHT22;15046;50.930;13.334;2023-06-10T08:12:33;23.30;94.10
27633;DHT22;15046;50.930;13.334;2023-06-10T08:15:00;23.60;93.70
27633;DHT22;15046;50.930;13.334;2023-06-10T08:17:26;23.70;93.30
27633;DHT22;15046;50.930;13.334;2023-06-10T08:19:51;23.80;93.20
27633;DHT22;15046;50.930;13.334;2023-06-10T08:22:18;23.80;92.80
27633;DHT22;15046;50.930;13.334;2023-06-10T08:24:43;23.80;92.40
27633;DHT22;15046;50.930;13.334;2023-06-10T08:27:09;23.70;92.40
27633;DHT22;15046;50.930;13.334;2023-06-10T08:29:36;23.70;92.30
27633;DHT22;15046;50.930;13.334;2023-06-10T08:32:02;23.60;92.10
27633;DHT22;15046;50.930;13.334;2023-06-10T08:34:28;23.50;92.10
27633;DHT22;15046;50.930;13.334;2023-06-10T08:36:53;23.50;91.90
27633;DHT22;15046;50.930;13.334;2023-06-10T08:39:21;23.50;91.90
27633;DHT22;15046;50.930;13.334;2023-06-10T08:44:35;23.70;92.30
27633;DHT22;15046;50.930;13.334;2023-06-10T08:47:08;23.80;91.50
27633;DHT22;15046;50.930;13.334;2023-06-10T08:49:40;23.90;91.50
27633;DHT22;15046;50.930;13.334;2023-06-10T08:52:07;23.70;91.20
27633;DHT22;15046;50.930;13.334;2023-06-10T08:54:34;23.60;91.40
27633;DHT22;15046;50.930;13.334;2023-06-10T08:57:05;23.50;91.30
27633;DHT22;15046;50.930;13.334;2023-06-10T08:59:34;23.40;91.40
27633;DHT22;15046;50.930;13.334;2023-06-10T09:02:01;23.30;91.70
27633;DHT22;15046;50.930;13.334;2023-06-10T09:04:28;23.20;91.60
27633;DHT22;15046;50.930;13.334;2023-06-10T09:06:54;23.30;91.50
27633;DHT22;15046;50.930;13.334;2023-06-10T09:09:22;23.20;91.10
27633;DHT22;15046;50.930;13.334;2023-06-10T09:11:48;23.20;91.00
27633;DHT22;15046;50.930;13.334;2023-06-10T09:14:14;23.10;91.30
27633;DHT22;15046;50.930;13.334;2023-06-10T09:16:42;23.10;91.70
27633;DHT22;15046;50.930;13.334;2023-06-10T09:19:07;23.20;91.50
27633;DHT22;15046;50.930;13.334;2023-06-10T09:21:34;23.40;91.30
27633;DHT22;15046;50.930;13.334;2023-06-10T09:24:01;23.80;91.00
27633;DHT22;15046;50.930;13.334;2023-06-10T09:26:30;24.20;90.60
27633;DHT22;15046;50.930;13.334;2023-06-10T09:29:06;24.70;90.10
27633;DHT22;15046;50.930;13.334;2023-06-10T09:31:36;25.20;90.10
27633;DHT22;15046;50.930;13.334;2023-06-10T09:34:11;25.70;88.50
27633;DHT22;15046;50.930;13.334;2023-06-10T09:36:38;26.00;88.30
27633;DHT22;15046;50.930;13.334;2023-06-10T09:39:04;26.20;88.00
27633;DHT22;15046;50.930;13.334;2023-06-10T09:41:34;26.20;85.90
27633;DHT22;15046;50.930;13.334;2023-06-10T09:44:00;26.20;85.20
27633;DHT22;15046;50.930;13.334;2023-06-10T09:46:30;26.20;85.40
27633;DHT22;15046;50.930;13.334;2023-06-10T09:48:57;26.20;85.70
27633;DHT22;15046;50.930;13.334;2023-06-10T09:51:24;26.20;85.50
27633;DHT22;15046;50.930;13.334;2023-06-10T09:53:53;26.20;84.30
27633;DHT22;15046;50.930;13.334;2023-06-10T09:56:19;26.30;84.60
27633;DHT22;15046;50.930;13.334;2023-06-10T09:58:46;26.50;84.60
27633;DHT22;15046;50.930;13.334;2023-06-10T10:01:13;26.70;84.30
27633;DHT22;15046;50.930;13.334;2023-06-10T10:03:49;27.00;84.80
27633;DHT22;15046;50.930;13.334;2023-06-10T10:06:16;27.30;83.70
27633;DHT22;15046;50.930;13.334;2023-06-10T10:08:47;27.80;82.90
27633;DHT22;15046;50.930;13.334;2023-06-10T10:11:17;28.40;80.00
27633;DHT22;15046;50.930;13.334;2023-06-10T10:13:45;28.50;79.80
27633;DHT22;15046;50.930;13.334;2023-06-10T10:16:16;28.60;78.00
27633;DHT22;15046;50.930;13.334;2023-06-10T10:18:48;29.10;76.40
27633;DHT22;15046;50.930;13.334;2023-06-10T10:21:16;29.80;75.50
27633;DHT22;15046;50.930;13.334;2023-06-10T10:23:58;29.70;73.50
27633;DHT22;15046;50.930;13.334;2023-06-10T10:26:27;29.50;72.30
27633;DHT22;15046;50.930;13.334;2023-06-10T10:29:20;29.20;70.90
27633;DHT22;15046;50.930;13.334;2023-06-10T10:31:51;29.20;70.70
27633;DHT22;15046;50.930;13.334;2023-06-10T10:34:27;29.10;70.90
27633;DHT22;15046;50.930;13.334;2023-06-10T10:36:55;29.40;71.60
27633;DHT22;15046;50.930;13.334;2023-06-10T10:39:21;29.80;69.70
27633;DHT22;15046;50.930;13.334;2023-06-10T10:41:48;30.60;69.40
27633;DHT22;15046;50.930;13.334;2023-06-10T10:44:14;31.70;67.80
27633;DHT22;15046;50.930;13.334;2023-06-10T10:46:48;32.40;65.80
27633;DHT22;15046;50.930;13.334;2023-06-10T10:49:21;33.30;63.60
27633;DHT22;15046;50.930;13.334;2023-06-10T10:51:59;34.00;63.00
27633;DHT22;15046;50.930;13.334;2023-06-10T10:57:22;32.90;60.60
27633;DHT22;15046;50.930;13.334;2023-06-10T10:59:55;31.50;61.90
27633;DHT22;15046;50.930;13.334;2023-06-10T11:02:53;31.20;61.20
27633;DHT22;15046;50.930;13.334;2023-06-10T11:05:36;31.20;61.60
27633;DHT22;15046;50.930;13.334;2023-06-10T11:10:57;33.00;62.30
27633;DHT22;15046;50.930;13.334;2023-06-10T11:13:40;33.40;60.70
27633;DHT22;15046;50.930;13.334;2023-06-10T11:16:38;33.50;60.30
27633;DHT22;15046;50.930;13.334;2023-06-10T11:19:08;34.30;59.70
27633;DHT22;15046;50.930;13.334;2023-06-10T11:21:58;34.30;58.60
27633;DHT22;15046;50.930;13.334;2023-06-10T11:24:28;33.00;58.20
27633;DHT22;15046;50.930;13.334;2023-06-10T11:26:54;31.80;59.60
27633;DHT22;15046;50.930;13.334;2023-06-10T11:29:23;31.30;59.60
27633;DHT22;15046;50.930;13.334;2023-06-10T11:32:06;31.70;61.10
27633;DHT22;15046;50.930;13.334;2023-06-10T11:34:35;32.90;60.40
27633;DHT22;15046;50.930;13.334;2023-06-10T11:37:02;33.80;57.20
27633;DHT22;15046;50.930;13.334;2023-06-10T11:39:29;34.30;57.30
27633;DHT22;15046;50.930;13.334;2023-06-10T11:41:56;35.00;56.40
27633;DHT22;15046;50.930;13.334;2023-06-10T11:44:27;34.60;55.80
27633;DHT22;15046;50.930;13.334;2023-06-10T11:46:56;33.90;56.50
27633;DHT22;15046;50.930;13.334;2023-06-10T11:49:22;34.30;55.70
27633;DHT22;15046;50.930;13.334;2023-06-10T11:51:47;34.70;55.40
27633;DHT22;15046;50.930;13.334;2023-06-10T11:54:17;35.00;56.00
27633;DHT22;15046;50.930;13.334;2023-06-10T11:56:43;35.10;56.60
27633;DHT22;15046;50.930;13.334;2023-06-10T11:59:09;35.40;56.70
27633;DHT22;15046;50.930;13.334;2023-06-10T12:01:42;35.80;57.00
27633;DHT22;15046;50.930;13.334;2023-06-10T12:04:11;36.50;55.40
27633;DHT22;15046;50.930;13.334;2023-06-10T12:06:55;36.80;54.80
27633;DHT22;15046;50.930;13.334;2023-06-10T12:09:29;36.80;53.80
27633;DHT22;15046;50.930;13.334;2023-06-10T12:12:05;37.00;53.00
27633;DHT22;15046;50.930;13.334;2023-06-10T12:19:56;34.70;53.70
27633;DHT22;15046;50.930;13.334;2023-06-10T12:22:23;34.50;53.20
27633;DHT22;15046;50.930;13.334;2023-06-10T12:25:04;34.80;52.40
27633;DHT22;15046;50.930;13.334;2023-06-10T12:27:32;35.30;52.50
27633;DHT22;15046;50.930;13.334;2023-06-10T12:30:00;35.60;51.70
27633;DHT22;15046;50.930;13.334;2023-06-10T12:32:45;35.80;51.30
27633;DHT22;15046;50.930;13.334;2023-06-10T12:35:12;35.90;51.80
27633;DHT22;15046;50.930;13.334;2023-06-10T12:37:41;36.10;51.60
27633;DHT22;15046;50.930;13.334;2023-06-10T12:40:07;36.20;51.00
27633;DHT22;15046;50.930;13.334;2023-06-10T12:42:37;36.40;50.80
27633;DHT22;15046;50.930;13.334;2023-06-10T12:45:04;36.10;50.40
27633;DHT22;15046;50.930;13.334;2023-06-10T12:47:35;35.90;50.60
27633;DHT22;15046;50.930;13.334;2023-06-10T12:50:04;36.00;51.20
27633;DHT22;15046;50.930;13.334;2023-06-10T12:52:30;36.00;49.70
27633;DHT22;15046;50.930;13.334;2023-06-10T12:54:56;36.10;50.50
27633;DHT22;15046;50.930;13.334;2023-06-10T12:57:22;36.20;49.60
27633;DHT22;15046;50.930;13.334;2023-06-10T12:59:48;36.10;49.10
27633;DHT22;15046;50.930;13.334;2023-06-10T13:02:26;35.90;49.90
27633;DHT22;15046;50.930;13.334;2023-06-10T13:04:51;35.80;50.90
27633;DHT22;15046;50.930;13.334;2023-06-10T13:07:17;35.80;50.70
27633;DHT22;15046;50.930;13.334;2023-06-10T13:09:43;35.10;51.40
27633;DHT22;15046;50.930;13.334;2023-06-10T13:12:09;35.00;50.30
27633;DHT22;15046;50.930;13.334;2023-06-10T13:14:37;35.30;48.80
27633;DHT22;15046;50.930;13.334;2023-06-10T13:17:06;35.60;48.60
27633;DHT22;15046;50.930;13.334;2023-06-10T13:19:33;35.90;48.30
27633;DHT22;15046;50.930;13.334;2023-06-10T13:21:59;35.90;47.50
27633;DHT22;15046;50.930;13.334;2023-06-10T13:24:24;35.70;46.30
27633;DHT22;15046;50.930;13.334;2023-06-10T13:26:50;35.20;46.70
27633;DHT22;15046;50.930;13.334;2023-06-10T13:29:16;34.90;46.90
27633;DHT22;15046;50.930;13.334;2023-06-10T13:31:42;35.00;46.40
27633;DHT22;15046;50.930;13.334;2023-06-10T13:34:08;35.10;46.70
27633;DHT22;15046;50.930;13.334;2023-06-10T13:36:33;35.20;46.50
27633;DHT22;15046;50.930;13.334;2023-06-10T13:38:59;35.40;46.50
27633;DHT22;15046;50.930;13.334;2023-06-10T13:41:25;35.80;45.50
27633;DHT22;15046;50.930;13.334;2023-06-10T13:43:54;35.90;45.30
27633;DHT22;15046;50.930;13.334;2023-06-10T13:46:20;36.30;45.50
27633;DHT22;15046;50.930;13.334;2023-06-10T13:48:47;36.40;44.60
27633;DHT22;15046;50.930;13.334;2023-06-10T13:51:13;36.20;45.00
27633;DHT22;15046;50.930;13.334;2023-06-10T13:53:39;35.60;44.30
27633;DHT22;15046;50.930;13.334;2023-06-10T13:56:04;34.60;45.50
27633;DHT22;15046;50.930;13.334;2023-06-10T13:58:30;33.80;45.90
27633;DHT22;15046;50.930;13.334;2023-06-10T14:00:56;33.10;46.90
27633;DHT22;15046;50.930;13.334;2023-06-10T14:03:24;32.80;47.00
27633;DHT22;15046;50.930;13.334;2023-06-10T14:05:49;32.60;47.30
27633;DHT22;15046;50.930;13.334;2023-06-10T14:08:15;32.30;48.20
27633;DHT22;15046;50.930;13.334;2023-06-10T14:10:42;32.40;49.30
27633;DHT22;15046;50.930;13.334;2023-06-10T14:13:08;32.60;49.30
27633;DHT22;15046;50.930;13.334;2023-06-10T14:15:34;32.60;49.20
27633;DHT22;15046;50.930;13.334;2023-06-10T14:18:00;32.80;48.50
27633;DHT22;15046;50.930;13.334;2023-06-10T14:20:26;32.90;48.20
27633;DHT22;15046;50.930;13.334;2023-06-10T14:22:52;33.20;48.30
27633;DHT22;15046;50.930;13.334;2023-06-10T14:25:18;33.40;48.00
27633;DHT22;15046;50.930;13.334;2023-06-10T14:27:43;33.90;48.50
27633;DHT22;15046;50.930;13.334;2023-06-10T14:30:09;34.40;47.00
27633;DHT22;15046;50.930;13.334;2023-06-10T14:32:35;34.80;47.30
27633;DHT22;15046;50.930;13.334;2023-06-10T14:35:01;35.20;45.80
27633;DHT22;15046;50.930;13.334;2023-06-10T14:37:27;35.40;45.50
27633;DHT22;15046;50.930;13.334;2023-06-10T14:39:53;35.60;46.00
27633;DHT22;15046;50.930;13.334;2023-06-10T14:42:18;36.00;46.20
27633;DHT22;15046;50.930;13.334;2023-06-10T14:44:44;36.10;44.30
27633;DHT22;15046;50.930;13.334;2023-06-10T14:47:10;36.10;44.80
27633;DHT22;15046;50.930;13.334;2023-06-10T14:49:36;36.20;44.30
27633;DHT22;15046;50.930;13.334;2023-06-10T14:52:02;36.30;43.40
27633;DHT22;15046;50.930;13.334;2023-06-10T14:54:31;36.30;42.80
27633;DHT22;15046;50.930;13.334;2023-06-10T14:56:56;36.30;43.30
27633;DHT22;15046;50.930;13.334;2023-06-10T14:59:22;36.20;42.40
27633;DHT22;15046;50.930;13.334;2023-06-10T15:01:48;36.20;41.60
27633;DHT22;15046;50.930;13.334;2023-06-10T15:04:14;36.30;40.80
27633;DHT22;15046;50.930;13.334;2023-06-10T15:06:39;36.10;41.20
27633;DHT22;15046;50.930;13.334;2023-06-10T15:09:07;36.00;41.20
27633;DHT22;15046;50.930;13.334;2023-06-10T15:11:32;36.00;41.10
27633;DHT22;15046;50.930;13.334;2023-06-10T15:13:58;35.90;42.10
27633;DHT22;15046;50.930;13.334;2023-06-10T15:16:24;36.00;41.50
27633;DHT22;15046;50.930;13.334;2023-06-10T15:18:50;36.00;41.60
27633;DHT22;15046;50.930;13.334;2023-06-10T15:21:15;36.20;42.40
27633;DHT22;15046;50.930;13.334;2023-06-10T15:23:41;36.20;42.70
27633;DHT22;15046;50.930;13.334;2023-06-10T15:26:07;36.30;43.00
27633;DHT22;15046;50.930;13.334;2023-06-10T15:28:33;36.50;42.00
27633;DHT22;15046;50.930;13.334;2023-06-10T15:30:59;36.50;40.80
27633;DHT22;15046;50.930;13.334;2023-06-10T15:33:25;36.20;40.50
27633;DHT22;15046;50.930;13.334;2023-06-10T15:35:51;36.00;40.70